sensor_id;sensor_type;location;lat;lon;timestamp;P1;durP1;ratioP1;P2;durP2;ratioP2
1925;SDS011;964;42.606;23.588;2022-08-23T00:01:51;13.33;;;9.90;;
1925;SDS011;964;42.606;23.588;2022-08-23T00:04:22;15.43;;;11.83;;
1925;SDS011;964;42.606;23.588;2022-08-23T00:06:51;17.73;;;11.40;;
1925;SDS011;964;42.606;23.588;2022-08-23T00:09:19;13.67;;;10.40;;
1925;SDS011;964;42.606;23.588;2022-08-23T00:11:48;16.80;;;11.90;;
1925;SDS011;964;42.606;23.588;2022-08-23T00:14:17;15.87;;;11.60;;
1925;SDS011;964;42.606;23.588;2022-08-23T00:16:46;15.80;;;12.07;;
1925;SDS011;964;42.606;23.588;2022-08-23T00:19:14;13.60;;;11.07;;
1925;SDS011;964;42.606;23.588;2022-08-23T00:21:43;16.90;;;11.50;;
1925;SDS011;964;42.606;23.588;2022-08-23T00:24:12;16.00;;;11.80;;
1925;SDS011;964;42.606;23.588;2022-08-23T00:26:49;15.13;;;11.63;;
1925;SDS011;964;42.606;23.588;2022-08-23T00:29:17;17.27;;;11.90;;
1925;SDS011;964;42.606;23.588;2022-08-23T00:31:45;18.10;;;12.07;;
1925;SDS011;964;42.606;23.588;2022-08-23T00:34:12;14.53;;;10.80;;
1925;SDS011;964;42.606;23.588;2022-08-23T00:36:40;16.13;;;11.00;;
1925;SDS011;964;42.606;23.588;2022-08-23T00:39:10;15.50;;;11.47;;
1925;SDS011;964;42.606;23.588;2022-08-23T00:41:37;19.40;;;11.57;;
1925;SDS011;964;42.606;23.588;2022-08-23T00:44:05;19.60;;;11.27;;
1925;SDS011;964;42.606;23.588;2022-08-23T00:46:58;16.43;;;10.73;;
1925;SDS011;964;42.606;23.588;2022-08-23T00:49:43;16.97;;;12.20;;
1925;SDS011;964;42.606;23.588;2022-08-23T00:52:16;18.87;;;11.03;;
1925;SDS011;964;42.606;23.588;2022-08-23T00:54:48;19.00;;;12.37;;
1925;SDS011;964;42.606;23.588;2022-08-23T00:57:18;14.57;;;11.17;;
1925;SDS011;964;42.606;23.588;2022-08-23T00:59:46;19.97;;;13.00;;
1925;SDS011;964;42.606;23.588;2022-08-23T01:02:12;18.23;;;13.20;;
1925;SDS011;964;42.606;23.588;2022-08-23T01:04:42;18.47;;;12.03;;
1925;SDS011;964;42.606;23.588;2022-08-23T01:07:15;19.50;;;12.53;;
1925;SDS011;964;42.606;23.588;2022-08-23T01:09:49;25.83;;;12.67;;
1925;SDS011;964;42.606;23.588;2022-08-23T01:12:20;22.73;;;10.73;;
1925;SDS011;964;42.606;23.588;2022-08-23T01:14:53;17.90;;;12.07;;
1925;SDS011;964;42.606;23.588;2022-08-23T01:17:25;18.60;;;11.60;;
1925;SDS011;964;42.606;23.588;2022-08-23T01:19:58;16.53;;;12.60;;
1925;SDS011;964;42.606;23.588;2022-08-23T01:22:29;16.07;;;10.63;;
1925;SDS011;964;42.606;23.588;2022-08-23T01:25:03;20.40;;;11.50;;
1925;SDS011;964;42.606;23.588;2022-08-23T01:27:31;16.17;;;11.03;;
1925;SDS011;964;42.606;23.588;2022-08-23T01:29:58;13.67;;;10.50;;
1925;SDS011;964;42.606;23.588;2022-08-23T01:32:25;12.47;;;9.50;;
1925;SDS011;964;42.606;23.588;2022-08-23T01:34:53;13.73;;;10.20;;
1925;SDS011;964;42.606;23.588;2022-08-23T01:37:20;14.80;;;10.73;;
1925;SDS011;964;42.606;23.588;2022-08-23T01:39:47;22.37;;;11.30;;
1925;SDS011;964;42.606;23.588;2022-08-23T01:42:15;14.10;;;10.63;;
1925;SDS011;964;42.606;23.588;2022-08-23T01:44:42;13.13;;;10.30;;
1925;SDS011;964;42.606;23.588;2022-08-23T01:47:08;11.87;;;9.00;;
1925;SDS011;964;42.606;23.588;2022-08-23T01:49:35;11.27;;;8.63;;
1925;SDS011;964;42.606;23.588;2022-08-23T01:52:02;10.67;;;8.77;;
1925;SDS011;964;42.606;23.588;2022-08-23T01:54:29;10.03;;;8.70;;
1925;SDS011;964;42.606;23.588;2022-08-23T01:56:56;12.57;;;8.90;;
1925;SDS011;964;42.606;23.588;2022-08-23T01:59:24;11.70;;;8.00;;
1925;SDS011;964;42.606;23.588;2022-08-23T02:01:51;12.97;;;8.33;;
1925;SDS011;964;42.606;23.588;2022-08-23T02:04:18;7.00;;;6.20;;
1925;SDS011;964;42.606;23.588;2022-08-23T02:06:46;7.77;;;6.97;;
1925;SDS011;964;42.606;23.588;2022-08-23T02:09:13;7.80;;;6.60;;
1925;SDS011;964;42.606;23.588;2022-08-23T02:11:40;8.73;;;6.63;;
1925;SDS011;964;42.606;23.588;2022-08-23T02:14:09;8.77;;;6.80;;
1925;SDS011;964;42.606;23.588;2022-08-23T02:16:43;8.77;;;6.90;;
1925;SDS011;964;42.606;23.588;2022-08-23T02:19:11;8.70;;;7.20;;
1925;SDS011;964;42.606;23.588;2022-08-23T02:21:39;10.77;;;8.00;;
1925;SDS011;964;42.606;23.588;2022-08-23T02:24:08;7.53;;;6.70;;
1925;SDS011;964;42.606;23.588;2022-08-23T02:26:37;8.03;;;6.10;;
1925;SDS011;964;42.606;23.588;2022-08-23T02:29:06;8.43;;;6.53;;
1925;SDS011;964;42.606;23.588;2022-08-23T02:31:33;7.90;;;6.00;;
1925;SDS011;964;42.606;23.588;2022-08-23T02:34:01;8.87;;;6.70;;
1925;SDS011;964;42.606;23.588;2022-08-23T02:36:30;6.90;;;5.63;;
1925;SDS011;964;42.606;23.588;2022-08-23T02:39:00;7.13;;;5.20;;
1925;SDS011;964;42.606;23.588;2022-08-23T02:41:26;9.10;;;5.93;;
1925;SDS011;964;42.606;23.588;2022-08-23T02:43:54;6.37;;;5.17;;
1925;SDS011;964;42.606;23.588;2022-08-23T02:46:20;7.97;;;5.83;;
1925;SDS011;964;42.606;23.588;2022-08-23T02:48:48;9.30;;;5.03;;
1925;SDS011;964;42.606;23.588;2022-08-23T02:51:16;7.70;;;5.10;;
1925;SDS011;964;42.606;23.588;2022-08-23T02:53:44;5.57;;;4.30;;
1925;SDS011;964;42.606;23.588;2022-08-23T02:56:11;5.30;;;3.97;;
1925;SDS011;964;42.606;23.588;2022-08-23T02:58:38;5.73;;;4.30;;
1925;SDS011;964;42.606;23.588;2022-08-23T03:01:05;8.00;;;4.23;;
1925;SDS011;964;42.606;23.588;2022-08-23T03:03:39;5.20;;;4.03;;
1925;SDS011;964;42.606;23.588;2022-08-23T03:06:05;7.83;;;4.43;;
1925;SDS011;964;42.606;23.588;2022-08-23T03:08:34;5.40;;;4.83;;
1925;SDS011;964;42.606;23.588;2022-08-23T03:11:00;4.67;;;4.17;;
1925;SDS011;964;42.606;23.588;2022-08-23T03:13:27;4.97;;;4.23;;
1925;SDS011;964;42.606;23.588;2022-08-23T03:15:55;4.87;;;4.00;;
1925;SDS011;964;42.606;23.588;2022-08-23T03:18:21;5.53;;;4.17;;
1925;SDS011;964;42.606;23.588;2022-08-23T03:20:48;5.23;;;4.27;;
1925;SDS011;964;42.606;23.588;2022-08-23T03:23:15;5.87;;;3.90;;
1925;SDS011;964;42.606;23.588;2022-08-23T03:25:43;5.47;;;3.90;;
1925;SDS011;964;42.606;23.588;2022-08-23T03:28:10;4.50;;;4.10;;
1925;SDS011;964;42.606;23.588;2022-08-23T03:30:37;4.10;;;3.70;;
1925;SDS011;964;42.606;23.588;2022-08-23T03:33:03;5.53;;;3.53;;
1925;SDS011;964;42.606;23.588;2022-08-23T03:35:30;5.33;;;4.20;;
1925;SDS011;964;42.606;23.588;2022-08-23T03:37:57;5.87;;;4.60;;
1925;SDS011;964;42.606;23.588;2022-08-23T03:40:24;4.97;;;4.10;;
1925;SDS011;964;42.606;23.588;2022-08-23T03:42:52;8.70;;;4.63;;
1925;SDS011;964;42.606;23.588;2022-08-23T03:45:19;5.97;;;4.50;;
1925;SDS011;964;42.606;23.588;2022-08-23T03:47:46;6.40;;;5.63;;
1925;SDS011;964;42.606;23.588;2022-08-23T03:50:12;9.70;;;5.30;;
1925;SDS011;964;42.606;23.588;2022-08-23T03:52:39;6.83;;;5.13;;
1925;SDS011;964;42.606;23.588;2022-08-23T03:55:06;5.73;;;4.83;;
1925;SDS011;964;42.606;23.588;2022-08-23T03:57:33;6.77;;;4.70;;
1925;SDS011;964;42.606;23.588;2022-08-23T04:00:02;5.43;;;4.63;;
1925;SDS011;964;42.606;23.588;2022-08-23T04:02:30;7.60;;;5.43;;
1925;SDS011;964;42.606;23.588;2022-08-23T04:04:57;6.20;;;4.90;;
1925;SDS011;964;42.606;23.588;2022-08-23T04:07:23;7.03;;;5.30;;
1925;SDS011;964;42.606;23.588;2022-08-23T04:09:51;8.20;;;5.30;;
1925;SDS011;964;42.606;23.588;2022-08-23T04:12:17;7.63;;;5.43;;
1925;SDS011;964;42.606;23.588;2022-08-23T04:14:44;6.63;;;5.67;;
1925;SDS011;964;42.606;23.588;2022-08-23T04:17:13;7.07;;;5.20;;
1925;SDS011;964;42.606;23.588;2022-08-23T04:19:40;6.57;;;5.20;;
1925;SDS011;964;42.606;23.588;2022-08-23T04:22:09;7.50;;;4.53;;
1925;SDS011;964;42.606;23.588;2022-08-23T04:24:38;7.80;;;5.20;;
1925;SDS011;964;42.606;23.588;2022-08-23T04:27:05;11.10;;;6.27;;
1925;SDS011;964;42.606;23.588;2022-08-23T04:29:32;6.07;;;5.47;;
1925;SDS011;964;42.606;23.588;2022-08-23T04:31:59;8.13;;;5.57;;
1925;SDS011;964;42.606;23.588;2022-08-23T04:34:28;6.87;;;5.03;;
1925;SDS011;964;42.606;23.588;2022-08-23T04:36:56;6.40;;;5.00;;
1925;SDS011;964;42.606;23.588;2022-08-23T04:39:23;6.47;;;4.93;;
1925;SDS011;964;42.606;23.588;2022-08-23T04:41:50;5.20;;;4.40;;
1925;SDS011;964;42.606;23.588;2022-08-23T04:44:34;7.47;;;5.13;;
1925;SDS011;964;42.606;23.588;2022-08-23T04:47:01;5.90;;;4.80;;
1925;SDS011;964;42.606;23.588;2022-08-23T04:49:29;8.30;;;5.37;;
1925;SDS011;964;42.606;23.588;2022-08-23T04:51:56;9.60;;;5.50;;
1925;SDS011;964;42.606;23.588;2022-08-23T04:54:23;9.03;;;5.27;;
1925;SDS011;964;42.606;23.588;2022-08-23T04:56:50;7.20;;;5.20;;
1925;SDS011;964;42.606;23.588;2022-08-23T04:59:16;8.30;;;5.43;;
1925;SDS011;964;42.606;23.588;2022-08-23T05:01:43;8.20;;;5.90;;
1925;SDS011;964;42.606;23.588;2022-08-23T05:04:10;6.73;;;4.90;;
1925;SDS011;964;42.606;23.588;2022-08-23T05:06:38;6.90;;;5.17;;
1925;SDS011;964;42.606;23.588;2022-08-23T05:09:06;9.50;;;4.77;;
1925;SDS011;964;42.606;23.588;2022-08-23T05:11:32;11.80;;;5.33;;
1925;SDS011;964;42.606;23.588;2022-08-23T05:13:59;6.43;;;4.30;;
1925;SDS011;964;42.606;23.588;2022-08-23T05:16:26;5.53;;;4.97;;
1925;SDS011;964;42.606;23.588;2022-08-23T05:18:53;7.57;;;5.10;;
1925;SDS011;964;42.606;23.588;2022-08-23T05:21:21;11.80;;;5.40;;
1925;SDS011;964;42.606;23.588;2022-08-23T05:23:50;6.70;;;4.70;;
1925;SDS011;964;42.606;23.588;2022-08-23T05:26:18;6.97;;;5.27;;
1925;SDS011;964;42.606;23.588;2022-08-23T05:28:46;8.10;;;5.33;;
1925;SDS011;964;42.606;23.588;2022-08-23T05:31:15;6.20;;;5.27;;
1925;SDS011;964;42.606;23.588;2022-08-23T05:33:43;9.07;;;5.63;;
1925;SDS011;964;42.606;23.588;2022-08-23T05:36:11;11.43;;;5.60;;
1925;SDS011;964;42.606;23.588;2022-08-23T05:38:39;6.70;;;5.77;;
1925;SDS011;964;42.606;23.588;2022-08-23T05:41:07;9.67;;;5.33;;
1925;SDS011;964;42.606;23.588;2022-08-23T05:43:35;5.27;;;4.77;;
1925;SDS011;964;42.606;23.588;2022-08-23T05:46:02;5.97;;;4.90;;
1925;SDS011;964;42.606;23.588;2022-08-23T05:48:31;9.53;;;6.00;;
1925;SDS011;964;42.606;23.588;2022-08-23T05:51:06;6.73;;;5.20;;
1925;SDS011;964;42.606;23.588;2022-08-23T05:53:38;7.20;;;5.10;;
1925;SDS011;964;42.606;23.588;2022-08-23T05:56:11;8.00;;;6.10;;
1925;SDS011;964;42.606;23.588;2022-08-23T05:58:40;6.50;;;5.40;;
1925;SDS011;964;42.606;23.588;2022-08-23T06:01:07;7.10;;;6.10;;
1925;SDS011;964;42.606;23.588;2022-08-23T06:03:34;9.47;;;5.83;;
1925;SDS011;964;42.606;23.588;2022-08-23T06:06:01;7.37;;;5.47;;
1925;SDS011;964;42.606;23.588;2022-08-23T06:08:29;6.27;;;5.10;;
1925;SDS011;964;42.606;23.588;2022-08-23T06:10:59;10.70;;;6.40;;
1925;SDS011;964;42.606;23.588;2022-08-23T06:13:29;6.63;;;5.70;;
1925;SDS011;964;42.606;23.588;2022-08-23T06:15:56;7.10;;;5.47;;
1925;SDS011;964;42.606;23.588;2022-08-23T06:18:24;7.97;;;5.47;;
1925;SDS011;964;42.606;23.588;2022-08-23T06:20:58;5.77;;;5.13;;
1925;SDS011;964;42.606;23.588;2022-08-23T06:23:28;5.67;;;4.80;;
1925;SDS011;964;42.606;23.588;2022-08-23T06:25:56;8.30;;;5.50;;
1925;SDS011;964;42.606;23.588;2022-08-23T06:28:23;7.03;;;5.70;;
1925;SDS011;964;42.606;23.588;2022-08-23T06:30:53;6.17;;;5.33;;
1925;SDS011;964;42.606;23.588;2022-08-23T06:33:21;6.70;;;5.50;;
1925;SDS011;964;42.606;23.588;2022-08-23T06:35:48;5.70;;;5.10;;
1925;SDS011;964;42.606;23.588;2022-08-23T06:38:15;5.93;;;4.53;;
1925;SDS011;964;42.606;23.588;2022-08-23T06:40:42;6.10;;;4.87;;
1925;SDS011;964;42.606;23.588;2022-08-23T06:43:09;8.23;;;4.87;;
1925;SDS011;964;42.606;23.588;2022-08-23T06:45:35;6.37;;;5.20;;
1925;SDS011;964;42.606;23.588;2022-08-23T06:48:04;5.80;;;4.77;;
1925;SDS011;964;42.606;23.588;2022-08-23T06:50:33;5.23;;;4.10;;
1925;SDS011;964;42.606;23.588;2022-08-23T06:53:00;5.57;;;4.70;;
1925;SDS011;964;42.606;23.588;2022-08-23T06:55:27;5.93;;;4.83;;
1925;SDS011;964;42.606;23.588;2022-08-23T06:57:53;5.00;;;4.50;;
1925;SDS011;964;42.606;23.588;2022-08-23T07:00:20;6.70;;;4.00;;
1925;SDS011;964;42.606;23.588;2022-08-23T07:02:47;6.50;;;4.73;;
1925;SDS011;964;42.606;23.588;2022-08-23T07:05:15;7.10;;;4.80;;
1925;SDS011;964;42.606;23.588;2022-08-23T07:07:42;6.90;;;4.50;;
1925;SDS011;964;42.606;23.588;2022-08-23T07:10:08;6.37;;;4.90;;
1925;SDS011;964;42.606;23.588;2022-08-23T07:12:37;5.73;;;4.20;;
1925;SDS011;964;42.606;23.588;2022-08-23T07:15:06;5.87;;;4.70;;
1925;SDS011;964;42.606;23.588;2022-08-23T07:17:33;7.00;;;4.53;;
1925;SDS011;964;42.606;23.588;2022-08-23T07:20:00;4.80;;;4.27;;
1925;SDS011;964;42.606;23.588;2022-08-23T07:22:28;4.77;;;4.10;;
1925;SDS011;964;42.606;23.588;2022-08-23T07:24:55;6.30;;;4.70;;
1925;SDS011;964;42.606;23.588;2022-08-23T07:27:22;4.90;;;4.33;;
1925;SDS011;964;42.606;23.588;2022-08-23T07:29:49;5.27;;;3.57;;
1925;SDS011;964;42.606;23.588;2022-08-23T07:32:15;4.13;;;3.73;;
1925;SDS011;964;42.606;23.588;2022-08-23T07:34:42;4.13;;;3.53;;
1925;SDS011;964;42.606;23.588;2022-08-23T07:37:09;4.17;;;3.77;;
1925;SDS011;964;42.606;23.588;2022-08-23T07:39:37;6.93;;;4.27;;
1925;SDS011;964;42.606;23.588;2022-08-23T07:42:04;8.50;;;4.50;;
1925;SDS011;964;42.606;23.588;2022-08-23T07:44:32;4.77;;;4.30;;
1925;SDS011;964;42.606;23.588;2022-08-23T07:47:00;3.90;;;3.53;;
1925;SDS011;964;42.606;23.588;2022-08-23T07:49:27;4.87;;;4.03;;
1925;SDS011;964;42.606;23.588;2022-08-23T07:51:53;5.00;;;4.50;;
1925;SDS011;964;42.606;23.588;2022-08-23T07:54:22;6.63;;;4.23;;
1925;SDS011;964;42.606;23.588;2022-08-23T07:56:50;6.10;;;4.20;;
1925;SDS011;964;42.606;23.588;2022-08-23T07:59:17;5.10;;;3.73;;
1925;SDS011;964;42.606;23.588;2022-08-23T08:01:44;4.80;;;4.30;;
1925;SDS011;964;42.606;23.588;2022-08-23T08:04:11;5.20;;;4.40;;
1925;SDS011;964;42.606;23.588;2022-08-23T08:06:38;3.97;;;3.67;;
1925;SDS011;964;42.606;23.588;2022-08-23T08:09:07;5.20;;;4.70;;
1925;SDS011;964;42.606;23.588;2022-08-23T08:11:35;6.63;;;4.30;;
1925;SDS011;964;42.606;23.588;2022-08-23T08:14:04;4.87;;;4.37;;
1925;SDS011;964;42.606;23.588;2022-08-23T08:16:33;4.80;;;4.30;;
1925;SDS011;964;42.606;23.588;2022-08-23T08:19:02;5.83;;;4.63;;
1925;SDS011;964;42.606;23.588;2022-08-23T08:21:31;6.17;;;4.27;;
1925;SDS011;964;42.606;23.588;2022-08-23T08:23:59;5.17;;;4.30;;
1925;SDS011;964;42.606;23.588;2022-08-23T08:26:25;3.80;;;3.40;;
1925;SDS011;964;42.606;23.588;2022-08-23T08:28:53;4.40;;;3.97;;
1925;SDS011;964;42.606;23.588;2022-08-23T08:31:22;5.00;;;3.53;;
1925;SDS011;964;42.606;23.588;2022-08-23T08:33:50;4.90;;;4.40;;
1925;SDS011;964;42.606;23.588;2022-08-23T08:36:27;4.83;;;4.23;;
1925;SDS011;964;42.606;23.588;2022-08-23T08:38:56;4.87;;;4.47;;
1925;SDS011;964;42.606;23.588;2022-08-23T08:41:24;4.80;;;4.20;;
1925;SDS011;964;42.606;23.588;2022-08-23T08:44:07;4.37;;;3.97;;
1925;SDS011;964;42.606;23.588;2022-08-23T08:46:43;4.37;;;3.83;;
1925;SDS011;964;42.606;23.588;2022-08-23T08:49:13;4.87;;;4.23;;
1925;SDS011;964;42.606;23.588;2022-08-23T08:51:45;5.00;;;4.50;;
1925;SDS011;964;42.606;23.588;2022-08-23T08:54:17;5.50;;;4.00;;
1925;SDS011;964;42.606;23.588;2022-08-23T08:56:48;4.63;;;3.70;;
1925;SDS011;964;42.606;23.588;2022-08-23T08:59:19;7.30;;;4.73;;
1925;SDS011;964;42.606;23.588;2022-08-23T09:01:49;4.50;;;4.10;;
1925;SDS011;964;42.606;23.588;2022-08-23T09:04:16;5.00;;;4.50;;
1925;SDS011;964;42.606;23.588;2022-08-23T09:06:48;4.97;;;4.07;;
1925;SDS011;964;42.606;23.588;2022-08-23T09:09:25;7.67;;;4.50;;
1925;SDS011;964;42.606;23.588;2022-08-23T09:12:04;4.67;;;4.20;;
1925;SDS011;964;42.606;23.588;2022-08-23T09:14:45;4.47;;;4.00;;
1925;SDS011;964;42.606;23.588;2022-08-23T09:17:22;4.60;;;4.10;;
1925;SDS011;964;42.606;23.588;2022-08-23T09:19:58;7.87;;;4.70;;
1925;SDS011;964;42.606;23.588;2022-08-23T09:22:31;5.17;;;4.67;;
1925;SDS011;964;42.606;23.588;2022-08-23T09:25:03;4.67;;;4.17;;
1925;SDS011;964;42.606;23.588;2022-08-23T09:27:30;4.33;;;3.97;;
1925;SDS011;964;42.606;23.588;2022-08-23T09:29:58;4.10;;;3.33;;
1925;SDS011;964;42.606;23.588;2022-08-23T09:32:29;5.13;;;4.30;;
1925;SDS011;964;42.606;23.588;2022-08-23T09:35:05;5.20;;;4.10;;
1925;SDS011;964;42.606;23.588;2022-08-23T09:37:45;4.70;;;4.30;;
1925;SDS011;964;42.606;23.588;2022-08-23T09:40:19;5.23;;;4.50;;
1925;SDS011;964;42.606;23.588;2022-08-23T09:43:05;5.63;;;4.50;;
1925;SDS011;964;42.606;23.588;2022-08-23T09:45:37;4.93;;;4.53;;
1925;SDS011;964;42.606;23.588;2022-08-23T09:48:11;4.80;;;4.40;;
1925;SDS011;964;42.606;23.588;2022-08-23T09:50:40;4.90;;;4.47;;
1925;SDS011;964;42.606;23.588;2022-08-23T09:53:12;5.80;;;4.90;;
1925;SDS011;964;42.606;23.588;2022-08-23T09:55:44;4.75;;;4.32;;
1925;SDS011;964;42.606;23.588;2022-08-23T09:58:16;5.00;;;4.60;;
1925;SDS011;964;42.606;23.588;2022-08-23T10:00:59;7.25;;;4.53;;
1925;SDS011;964;42.606;23.588;2022-08-23T10:03:34;5.47;;;4.72;;
1925;SDS011;964;42.606;23.588;2022-08-23T10:06:01;5.40;;;4.90;;
1925;SDS011;964;42.606;23.588;2022-08-23T10:08:29;7.15;;;5.28;;
1925;SDS011;964;42.606;23.588;2022-08-23T10:10:58;7.57;;;5.22;;
1925;SDS011;964;42.606;23.588;2022-08-23T10:13:31;5.60;;;5.10;;
1925;SDS011;964;42.606;23.588;2022-08-23T10:16:01;6.15;;;5.55;;
1925;SDS011;964;42.606;23.588;2022-08-23T10:18:40;4.78;;;4.38;;
1925;SDS011;964;42.606;23.588;2022-08-23T10:21:16;4.80;;;4.40;;
1925;SDS011;964;42.606;23.588;2022-08-23T10:23:50;5.15;;;4.22;;
1925;SDS011;964;42.606;23.588;2022-08-23T10:26:26;5.65;;;5.15;;
1925;SDS011;964;42.606;23.588;2022-08-23T10:28:57;6.00;;;5.40;;
1925;SDS011;964;42.606;23.588;2022-08-23T10:31:52;5.43;;;4.93;;
1925;SDS011;964;42.606;23.588;2022-08-23T10:34:32;7.13;;;5.28;;
1925;SDS011;964;42.606;23.588;2022-08-23T10:37:11;5.93;;;5.43;;
1925;SDS011;964;42.606;23.588;2022-08-23T10:39:58;5.37;;;4.90;;
1925;SDS011;964;42.606;23.588;2022-08-23T10:42:31;7.27;;;5.63;;
1925;SDS011;964;42.606;23.588;2022-08-23T10:45:09;6.03;;;5.43;;
1925;SDS011;964;42.606;23.588;2022-08-23T10:47:45;5.83;;;5.33;;
1925;SDS011;964;42.606;23.588;2022-08-23T10:50:25;5.83;;;5.23;;
1925;SDS011;964;42.606;23.588;2022-08-23T10:52:55;6.60;;;5.50;;
1925;SDS011;964;42.606;23.588;2022-08-23T10:55:26;23.20;;;7.53;;
1925;SDS011;964;42.606;23.588;2022-08-23T10:58:10;11.30;;;6.50;;
1925;SDS011;964;42.606;23.588;2022-08-23T11:00:40;7.20;;;5.40;;
1925;SDS011;964;42.606;23.588;2022-08-23T11:03:09;6.53;;;5.93;;
1925;SDS011;964;42.606;23.588;2022-08-23T11:05:44;6.13;;;5.57;;
1925;SDS011;964;42.606;23.588;2022-08-23T11:08:58;7.70;;;7.00;;
1925;SDS011;964;42.606;23.588;2022-08-23T11:11:37;9.07;;;6.60;;
1925;SDS011;964;42.606;23.588;2022-08-23T11:14:10;7.00;;;6.30;;
1925;SDS011;964;42.606;23.588;2022-08-23T11:16:38;6.50;;;5.80;;
1925;SDS011;964;42.606;23.588;2022-08-23T11:19:12;6.67;;;5.87;;
1925;SDS011;964;42.606;23.588;2022-08-23T11:21:43;8.13;;;7.33;;
1925;SDS011;964;42.606;23.588;2022-08-23T11:24:29;5.90;;;5.30;;
1925;SDS011;964;42.606;23.588;2022-08-23T11:27:02;5.80;;;5.00;;
1925;SDS011;964;42.606;23.588;2022-08-23T11:29:32;6.83;;;5.40;;
1925;SDS011;964;42.606;23.588;2022-08-23T11:32:02;8.30;;;5.73;;
1925;SDS011;964;42.606;23.588;2022-08-23T11:34:46;5.90;;;4.47;;
1925;SDS011;964;42.606;23.588;2022-08-23T11:37:29;3.93;;;3.53;;
1925;SDS011;964;42.606;23.588;2022-08-23T11:40:13;5.03;;;4.53;;
1925;SDS011;964;42.606;23.588;2022-08-23T11:43:02;5.50;;;4.40;;
1925;SDS011;964;42.606;23.588;2022-08-23T11:45:38;5.70;;;3.93;;
1925;SDS011;964;42.606;23.588;2022-08-23T11:48:11;4.40;;;3.40;;
1925;SDS011;964;42.606;23.588;2022-08-23T11:50:47;4.80;;;3.83;;
1925;SDS011;964;42.606;23.588;2022-08-23T11:56:37;4.90;;;3.80;;
1925;SDS011;964;42.606;23.588;2022-08-23T11:59:20;4.70;;;4.10;;
1925;SDS011;964;42.606;23.588;2022-08-23T12:04:57;3.93;;;3.43;;
1925;SDS011;964;42.606;23.588;2022-08-23T12:07:42;4.17;;;3.80;;
1925;SDS011;964;42.606;23.588;2022-08-23T12:10:12;3.80;;;3.50;;
1925;SDS011;964;42.606;23.588;2022-08-23T12:12:40;4.10;;;3.23;;
1925;SDS011;964;42.606;23.588;2022-08-23T12:15:08;4.20;;;3.80;;
1925;SDS011;964;42.606;23.588;2022-08-23T12:20:39;4.00;;;3.60;;
1925;SDS011;964;42.606;23.588;2022-08-23T12:23:12;4.10;;;3.50;;
1925;SDS011;964;42.606;23.588;2022-08-23T12:25:42;4.70;;;4.30;;
1925;SDS011;964;42.606;23.588;2022-08-23T12:28:24;5.27;;;4.27;;
1925;SDS011;964;42.606;23.588;2022-08-23T12:30:59;5.80;;;5.20;;
1925;SDS011;964;42.606;23.588;2022-08-23T12:33:35;5.93;;;5.13;;
1925;SDS011;964;42.606;23.588;2022-08-23T12:36:09;5.67;;;5.10;;
1925;SDS011;964;42.606;23.588;2022-08-23T12:38:47;6.80;;;5.70;;
1925;SDS011;964;42.606;23.588;2022-08-23T12:41:23;6.07;;;5.57;;
1925;SDS011;964;42.606;23.588;2022-08-23T12:43:53;6.57;;;5.90;;
1925;SDS011;964;42.606;23.588;2022-08-23T12:46:29;6.23;;;5.73;;
1925;SDS011;964;42.606;23.588;2022-08-23T12:48:57;6.30;;;5.70;;
1925;SDS011;964;42.606;23.588;2022-08-23T12:51:24;6.80;;;5.63;;
1925;SDS011;964;42.606;23.588;2022-08-23T12:53:51;6.10;;;5.60;;
1925;SDS011;964;42.606;23.588;2022-08-23T12:56:19;7.07;;;5.40;;
1925;SDS011;964;42.606;23.588;2022-08-23T12:58:52;7.03;;;6.33;;
1925;SDS011;964;42.606;23.588;2022-08-23T13:01:24;6.63;;;5.93;;
1925;SDS011;964;42.606;23.588;2022-08-23T13:03:53;7.17;;;6.50;;
1925;SDS011;964;42.606;23.588;2022-08-23T13:06:27;7.50;;;6.67;;
1925;SDS011;964;42.606;23.588;2022-08-23T13:09:00;6.83;;;6.17;;
1925;SDS011;964;42.606;23.588;2022-08-23T13:11:32;6.57;;;5.83;;
1925;SDS011;964;42.606;23.588;2022-08-23T13:16:49;8.07;;;6.30;;
1925;SDS011;964;42.606;23.588;2022-08-23T13:19:21;8.20;;;6.10;;
1925;SDS011;964;42.606;23.588;2022-08-23T13:24:37;8.37;;;6.00;;
1925;SDS011;964;42.606;23.588;2022-08-23T13:27:18;5.93;;;5.33;;
1925;SDS011;964;42.606;23.588;2022-08-23T13:29:56;5.60;;;4.50;;
1925;SDS011;964;42.606;23.588;2022-08-23T13:32:25;6.80;;;4.60;;
1925;SDS011;964;42.606;23.588;2022-08-23T13:37:50;5.23;;;4.10;;
1925;SDS011;964;42.606;23.588;2022-08-23T13:40:21;5.33;;;4.00;;
1925;SDS011;964;42.606;23.588;2022-08-23T13:42:51;5.53;;;4.90;;
1925;SDS011;964;42.606;23.588;2022-08-23T13:45:24;5.57;;;4.80;;
1925;SDS011;964;42.606;23.588;2022-08-23T13:47:58;4.00;;;3.60;;
1925;SDS011;964;42.606;23.588;2022-08-23T13:50:27;5.10;;;4.60;;
1925;SDS011;964;42.606;23.588;2022-08-23T13:52:56;5.73;;;5.20;;
1925;SDS011;964;42.606;23.588;2022-08-23T13:55:24;6.50;;;5.07;;
1925;SDS011;964;42.606;23.588;2022-08-23T13:57:54;5.47;;;4.87;;
1925;SDS011;964;42.606;23.588;2022-08-23T14:00:21;5.47;;;4.97;;
1925;SDS011;964;42.606;23.588;2022-08-23T14:02:49;6.63;;;5.70;;
1925;SDS011;964;42.606;23.588;2022-08-23T14:05:16;10.20;;;6.17;;
1925;SDS011;964;42.606;23.588;2022-08-23T14:07:45;6.33;;;5.70;;
1925;SDS011;964;42.606;23.588;2022-08-23T14:10:17;5.93;;;5.33;;
1925;SDS011;964;42.606;23.588;2022-08-23T14:12:46;5.83;;;4.97;;
1925;SDS011;964;42.606;23.588;2022-08-23T14:15:15;7.70;;;6.03;;
1925;SDS011;964;42.606;23.588;2022-08-23T14:17:44;7.40;;;5.60;;
1925;SDS011;964;42.606;23.588;2022-08-23T14:20:13;6.70;;;6.00;;
1925;SDS011;964;42.606;23.588;2022-08-23T14:22:41;6.03;;;5.47;;
1925;SDS011;964;42.606;23.588;2022-08-23T14:25:09;6.50;;;5.90;;
1925;SDS011;964;42.606;23.588;2022-08-23T14:27:37;6.43;;;5.77;;
1925;SDS011;964;42.606;23.588;2022-08-23T14:30:06;6.87;;;5.80;;
1925;SDS011;964;42.606;23.588;2022-08-23T14:32:37;7.53;;;5.60;;
1925;SDS011;964;42.606;23.588;2022-08-23T14:35:05;7.17;;;6.00;;
1925;SDS011;964;42.606;23.588;2022-08-23T14:37:32;9.83;;;6.03;;
1925;SDS011;964;42.606;23.588;2022-08-23T14:39:59;7.30;;;6.00;;
1925;SDS011;964;42.606;23.588;2022-08-23T14:42:26;6.13;;;5.10;;
1925;SDS011;964;42.606;23.588;2022-08-23T14:44:53;5.90;;;5.30;;
1925;SDS011;964;42.606;23.588;2022-08-23T14:47:20;6.27;;;5.67;;
1925;SDS011;964;42.606;23.588;2022-08-23T14:49:48;6.63;;;5.93;;
1925;SDS011;964;42.606;23.588;2022-08-23T14:52:15;6.20;;;5.60;;
1925;SDS011;964;42.606;23.588;2022-08-23T14:54:41;6.97;;;5.97;;
1925;SDS011;964;42.606;23.588;2022-08-23T14:57:08;7.63;;;6.13;;
1925;SDS011;964;42.606;23.588;2022-08-23T14:59:35;6.63;;;5.60;;
1925;SDS011;964;42.606;23.588;2022-08-23T15:02:02;7.27;;;6.37;;
1925;SDS011;964;42.606;23.588;2022-08-23T15:04:31;5.93;;;5.33;;
1925;SDS011;964;42.606;23.588;2022-08-23T15:06:59;9.50;;;6.37;;
1925;SDS011;964;42.606;23.588;2022-08-23T15:09:27;7.73;;;7.00;;
1925;SDS011;964;42.606;23.588;2022-08-23T15:11:53;7.13;;;6.10;;
1925;SDS011;964;42.606;23.588;2022-08-23T15:14:20;9.87;;;6.97;;
1925;SDS011;964;42.606;23.588;2022-08-23T15:16:47;6.90;;;6.20;;
1925;SDS011;964;42.606;23.588;2022-08-23T15:19:14;8.13;;;6.70;;
1925;SDS011;964;42.606;23.588;2022-08-23T15:21:41;9.07;;;6.47;;
1925;SDS011;964;42.606;23.588;2022-08-23T15:24:09;8.03;;;5.80;;
1925;SDS011;964;42.606;23.588;2022-08-23T15:26:37;6.17;;;5.57;;
1925;SDS011;964;42.606;23.588;2022-08-23T15:29:04;7.60;;;6.83;;
1925;SDS011;964;42.606;23.588;2022-08-23T15:31:31;9.50;;;7.13;;
1925;SDS011;964;42.606;23.588;2022-08-23T15:33:58;7.77;;;6.97;;
1925;SDS011;964;42.606;23.588;2022-08-23T15:36:25;6.30;;;5.60;;
1925;SDS011;964;42.606;23.588;2022-08-23T15:39:13;8.27;;;6.70;;
1925;SDS011;964;42.606;23.588;2022-08-23T15:41:40;8.33;;;6.63;;
1925;SDS011;964;42.606;23.588;2022-08-23T15:44:07;8.23;;;6.87;;
1925;SDS011;964;42.606;23.588;2022-08-23T15:46:34;9.27;;;7.50;;
1925;SDS011;964;42.606;23.588;2022-08-23T15:49:03;10.90;;;6.90;;